sensor_id;sensor_type;location;lat;lon;timestamp;P1;durP1;ratioP1;P2;durP2;ratioP2
80621;SDS011;69980;51.914;7.526;2023-05-29T00:01:28;7.07;;;2.03;;
80621;SDS011;69980;51.914;7.526;2023-05-29T00:03:53;7.55;;;2.42;;
80621;SDS011;69980;51.914;7.526;2023-05-29T00:06:19;7.30;;;1.67;;
80621;SDS011;69980;51.914;7.526;2023-05-29T00:08:44;8.18;;;2.20;;
80621;SDS011;69980;51.914;7.526;2023-05-29T00:11:09;9.80;;;1.98;;
80621;SDS011;69980;51.914;7.526;2023-05-29T00:13:35;9.75;;;2.03;;
80621;SDS011;69980;51.914;7.526;2023-05-29T00:16:00;8.80;;;2.00;;
80621;SDS011;69980;51.914;7.526;2023-05-29T00:18:26;9.85;;;2.20;;
80621;SDS011;69980;51.914;7.526;2023-05-29T00:20:51;7.85;;;2.03;;
80621;SDS011;69980;51.914;7.526;2023-05-29T00:23:16;7.88;;;1.95;;
80621;SDS011;69980;51.914;7.526;2023-05-29T00:25:42;8.93;;;2.33;;
80621;SDS011;69980;51.914;7.526;2023-05-29T00:28:09;7.22;;;2.45;;
80621;SDS011;69980;51.914;7.526;2023-05-29T00:30:34;10.75;;;2.42;;
80621;SDS011;69980;51.914;7.526;2023-05-29T00:32:59;12.35;;;2.60;;
80621;SDS011;69980;51.914;7.526;2023-05-29T00:35:25;9.82;;;2.33;;
80621;SDS011;69980;51.914;7.526;2023-05-29T00:37:51;13.35;;;2.60;;
80621;SDS011;69980;51.914;7.526;2023-05-29T00:40:16;12.68;;;2.70;;
80621;SDS011;69980;51.914;7.526;2023-05-29T00:42:41;10.48;;;2.70;;
80621;SDS011;69980;51.914;7.526;2023-05-29T00:45:07;9.02;;;2.22;;
80621;SDS011;69980;51.914;7.526;2023-05-29T00:47:32;11.30;;;2.58;;
80621;SDS011;69980;51.914;7.526;2023-05-29T00:49:57;13.68;;;2.67;;
80621;SDS011;69980;51.914;7.526;2023-05-29T00:52:23;10.90;;;2.30;;
80621;SDS011;69980;51.914;7.526;2023-05-29T00:54:49;11.02;;;2.30;;
80621;SDS011;69980;51.914;7.526;2023-05-29T00:57:15;11.90;;;2.65;;
80621;SDS011;69980;51.914;7.526;2023-05-29T00:59:41;12.68;;;2.33;;
80621;SDS011;69980;51.914;7.526;2023-05-29T01:02:07;12.98;;;2.50;;
80621;SDS011;69980;51.914;7.526;2023-05-29T01:04:32;14.82;;;2.75;;
80621;SDS011;69980;51.914;7.526;2023-05-29T01:06:58;13.50;;;2.45;;
80621;SDS011;69980;51.914;7.526;2023-05-29T01:09:23;14.00;;;2.40;;
80621;SDS011;69980;51.914;7.526;2023-05-29T01:11:58;13.32;;;2.50;;
80621;SDS011;69980;51.914;7.526;2023-05-29T01:15:04;10.90;;;2.35;;
80621;SDS011;69980;51.914;7.526;2023-05-29T01:25:46;11.20;;;2.05;;
80621;SDS011;69980;51.914;7.526;2023-05-29T01:28:15;14.10;;;2.47;;
80621;SDS011;69980;51.914;7.526;2023-05-29T01:30:45;11.23;;;2.40;;
80621;SDS011;69980;51.914;7.526;2023-05-29T01:33:10;13.07;;;2.70;;
80621;SDS011;69980;51.914;7.526;2023-05-29T01:35:36;15.52;;;2.75;;
80621;SDS011;69980;51.914;7.526;2023-05-29T01:38:01;12.02;;;2.40;;
80621;SDS011;69980;51.914;7.526;2023-05-29T01:40:26;13.05;;;2.17;;
80621;SDS011;69980;51.914;7.526;2023-05-29T01:42:51;15.32;;;2.50;;
80621;SDS011;69980;51.914;7.526;2023-05-29T01:45:17;9.05;;;1.90;;
80621;SDS011;69980;51.914;7.526;2023-05-29T01:47:42;12.85;;;2.47;;
80621;SDS011;69980;51.914;7.526;2023-05-29T01:50:08;12.95;;;2.47;;
80621;SDS011;69980;51.914;7.526;2023-05-29T01:52:34;14.55;;;2.58;;
80621;SDS011;69980;51.914;7.526;2023-05-29T01:54:59;11.45;;;2.08;;
80621;SDS011;69980;51.914;7.526;2023-05-29T01:57:24;9.52;;;1.92;;
80621;SDS011;69980;51.914;7.526;2023-05-29T01:59:50;13.02;;;2.65;;
80621;SDS011;69980;51.914;7.526;2023-05-29T02:02:16;14.75;;;3.35;;
80621;SDS011;69980;51.914;7.526;2023-05-29T02:04:41;11.40;;;2.10;;
80621;SDS011;69980;51.914;7.526;2023-05-29T02:07:06;13.05;;;2.85;;
80621;SDS011;69980;51.914;7.526;2023-05-29T02:09:32;11.05;;;2.22;;
80621;SDS011;69980;51.914;7.526;2023-05-29T02:11:59;11.30;;;2.50;;
80621;SDS011;69980;51.914;7.526;2023-05-29T02:14:24;10.75;;;2.17;;
80621;SDS011;69980;51.914;7.526;2023-05-29T02:16:49;15.43;;;2.55;;
80621;SDS011;69980;51.914;7.526;2023-05-29T02:19:15;10.98;;;2.45;;
80621;SDS011;69980;51.914;7.526;2023-05-29T02:21:40;14.93;;;2.30;;
80621;SDS011;69980;51.914;7.526;2023-05-29T02:24:05;9.65;;;2.15;;
80621;SDS011;69980;51.914;7.526;2023-05-29T02:26:31;13.63;;;2.38;;
80621;SDS011;69980;51.914;7.526;2023-05-29T02:28:56;12.48;;;2.28;;
80621;SDS011;69980;51.914;7.526;2023-05-29T02:31:22;11.15;;;2.20;;
80621;SDS011;69980;51.914;7.526;2023-05-29T02:33:47;13.13;;;2.17;;
80621;SDS011;69980;51.914;7.526;2023-05-29T02:36:12;9.88;;;2.00;;
80621;SDS011;69980;51.914;7.526;2023-05-29T02:38:38;12.45;;;2.60;;
80621;SDS011;69980;51.914;7.526;2023-05-29T02:41:03;11.90;;;2.20;;
80621;SDS011;69980;51.914;7.526;2023-05-29T02:43:28;12.35;;;2.25;;
80621;SDS011;69980;51.914;7.526;2023-05-29T02:45:54;13.10;;;2.35;;
80621;SDS011;69980;51.914;7.526;2023-05-29T02:48:19;11.98;;;2.50;;
80621;SDS011;69980;51.914;7.526;2023-05-29T02:50:44;12.65;;;2.33;;
80621;SDS011;69980;51.914;7.526;2023-05-29T02:53:10;14.13;;;2.80;;
80621;SDS011;69980;51.914;7.526;2023-05-29T02:55:35;10.55;;;2.05;;
80621;SDS011;69980;51.914;7.526;2023-05-29T02:58:00;11.43;;;2.25;;
80621;SDS011;69980;51.914;7.526;2023-05-29T03:00:25;12.05;;;2.05;;
80621;SDS011;69980;51.914;7.526;2023-05-29T03:02:51;14.88;;;2.60;;
80621;SDS011;69980;51.914;7.526;2023-05-29T03:05:16;12.68;;;2.30;;
80621;SDS011;69980;51.914;7.526;2023-05-29T03:07:41;13.80;;;2.20;;
80621;SDS011;69980;51.914;7.526;2023-05-29T03:10:07;13.68;;;2.20;;
80621;SDS011;69980;51.914;7.526;2023-05-29T03:12:32;11.73;;;2.00;;
80621;SDS011;69980;51.914;7.526;2023-05-29T03:14:57;10.43;;;2.00;;
80621;SDS011;69980;51.914;7.526;2023-05-29T03:17:23;12.57;;;2.13;;
80621;SDS011;69980;51.914;7.526;2023-05-29T03:19:48;12.02;;;2.60;;
80621;SDS011;69980;51.914;7.526;2023-05-29T03:22:13;8.90;;;2.00;;
80621;SDS011;69980;51.914;7.526;2023-05-29T03:24:39;12.98;;;2.10;;
80621;SDS011;69980;51.914;7.526;2023-05-29T03:27:04;10.88;;;2.10;;
80621;SDS011;69980;51.914;7.526;2023-05-29T03:29:31;12.70;;;2.28;;
80621;SDS011;69980;51.914;7.526;2023-05-29T03:31:56;9.32;;;1.80;;
80621;SDS011;69980;51.914;7.526;2023-05-29T03:34:22;13.38;;;2.17;;
80621;SDS011;69980;51.914;7.526;2023-05-29T03:36:47;14.02;;;2.33;;
80621;SDS011;69980;51.914;7.526;2023-05-29T03:39:12;7.93;;;1.80;;
80621;SDS011;69980;51.914;7.526;2023-05-29T03:41:38;14.52;;;2.20;;
80621;SDS011;69980;51.914;7.526;2023-05-29T03:44:03;13.20;;;2.33;;
80621;SDS011;69980;51.914;7.526;2023-05-29T03:46:29;12.27;;;2.22;;
80621;SDS011;69980;51.914;7.526;2023-05-29T03:48:56;10.95;;;2.30;;
80621;SDS011;69980;51.914;7.526;2023-05-29T03:51:21;13.32;;;2.40;;
80621;SDS011;69980;51.914;7.526;2023-05-29T03:53:47;10.45;;;2.20;;
80621;SDS011;69980;51.914;7.526;2023-05-29T03:56:12;10.02;;;1.88;;
80621;SDS011;69980;51.914;7.526;2023-05-29T03:58:37;15.90;;;2.38;;
80621;SDS011;69980;51.914;7.526;2023-05-29T04:01:03;16.77;;;2.40;;
80621;SDS011;69980;51.914;7.526;2023-05-29T04:03:29;12.40;;;2.55;;
80621;SDS011;69980;51.914;7.526;2023-05-29T04:05:54;12.25;;;2.45;;
80621;SDS011;69980;51.914;7.526;2023-05-29T04:08:19;13.77;;;2.30;;
80621;SDS011;69980;51.914;7.526;2023-05-29T04:10:45;12.75;;;2.42;;
80621;SDS011;69980;51.914;7.526;2023-05-29T04:13:10;15.57;;;2.55;;
80621;SDS011;69980;51.914;7.526;2023-05-29T04:15:35;15.52;;;2.40;;
80621;SDS011;69980;51.914;7.526;2023-05-29T04:18:00;12.57;;;2.10;;
80621;SDS011;69980;51.914;7.526;2023-05-29T04:20:26;10.65;;;2.28;;
80621;SDS011;69980;51.914;7.526;2023-05-29T04:22:51;12.82;;;2.13;;
80621;SDS011;69980;51.914;7.526;2023-05-29T04:25:17;13.40;;;2.40;;
80621;SDS011;69980;51.914;7.526;2023-05-29T04:27:42;11.57;;;2.00;;
80621;SDS011;69980;51.914;7.526;2023-05-29T04:30:08;9.05;;;1.90;;
80621;SDS011;69980;51.914;7.526;2023-05-29T04:32:33;9.85;;;1.75;;
80621;SDS011;69980;51.914;7.526;2023-05-29T04:34:59;15.68;;;2.28;;
80621;SDS011;69980;51.914;7.526;2023-05-29T04:37:24;10.20;;;2.13;;
80621;SDS011;69980;51.914;7.526;2023-05-29T04:39:50;12.60;;;2.30;;
80621;SDS011;69980;51.914;7.526;2023-05-29T04:42:15;8.82;;;1.77;;
80621;SDS011;69980;51.914;7.526;2023-05-29T04:44:40;11.38;;;2.35;;
80621;SDS011;69980;51.914;7.526;2023-05-29T04:47:05;15.02;;;2.42;;
80621;SDS011;69980;51.914;7.526;2023-05-29T04:49:31;15.00;;;2.08;;
80621;SDS011;69980;51.914;7.526;2023-05-29T04:51:56;12.35;;;1.85;;
80621;SDS011;69980;51.914;7.526;2023-05-29T04:54:21;11.73;;;2.08;;
80621;SDS011;69980;51.914;7.526;2023-05-29T04:56:47;13.30;;;2.25;;
80621;SDS011;69980;51.914;7.526;2023-05-29T04:59:12;9.85;;;2.00;;
80621;SDS011;69980;51.914;7.526;2023-05-29T05:01:38;13.05;;;2.53;;
80621;SDS011;69980;51.914;7.526;2023-05-29T05:04:03;11.90;;;2.15;;
80621;SDS011;69980;51.914;7.526;2023-05-29T05:06:29;10.25;;;2.28;;
80621;SDS011;69980;51.914;7.526;2023-05-29T05:08:54;13.00;;;2.33;;
80621;SDS011;69980;51.914;7.526;2023-05-29T05:11:19;9.25;;;2.00;;
80621;SDS011;69980;51.914;7.526;2023-05-29T05:13:46;11.93;;;2.17;;
80621;SDS011;69980;51.914;7.526;2023-05-29T05:16:11;11.95;;;2.00;;
80621;SDS011;69980;51.914;7.526;2023-05-29T05:18:37;17.05;;;2.63;;
80621;SDS011;69980;51.914;7.526;2023-05-29T05:21:02;9.38;;;2.00;;
80621;SDS011;69980;51.914;7.526;2023-05-29T05:23:28;10.88;;;1.77;;
80621;SDS011;69980;51.914;7.526;2023-05-29T05:25:53;10.88;;;2.20;;
80621;SDS011;69980;51.914;7.526;2023-05-29T05:28:18;9.85;;;2.45;;
80621;SDS011;69980;51.914;7.526;2023-05-29T05:30:44;12.02;;;2.20;;
80621;SDS011;69980;51.914;7.526;2023-05-29T05:33:09;11.43;;;2.22;;
80621;SDS011;69980;51.914;7.526;2023-05-29T05:35:34;12.05;;;1.92;;
80621;SDS011;69980;51.914;7.526;2023-05-29T05:37:59;10.40;;;2.10;;
80621;SDS011;69980;51.914;7.526;2023-05-29T05:40:25;10.15;;;2.00;;
80621;SDS011;69980;51.914;7.526;2023-05-29T05:42:52;10.02;;;2.05;;
80621;SDS011;69980;51.914;7.526;2023-05-29T05:45:17;11.00;;;2.00;;
80621;SDS011;69980;51.914;7.526;2023-05-29T05:47:43;10.77;;;2.25;;
80621;SDS011;69980;51.914;7.526;2023-05-29T05:50:08;10.85;;;2.15;;
80621;SDS011;69980;51.914;7.526;2023-05-29T05:52:34;11.32;;;2.13;;
80621;SDS011;69980;51.914;7.526;2023-05-29T05:54:59;10.93;;;2.10;;
80621;SDS011;69980;51.914;7.526;2023-05-29T05:57:25;12.77;;;2.00;;
80621;SDS011;69980;51.914;7.526;2023-05-29T05:59:50;13.18;;;2.35;;
80621;SDS011;69980;51.914;7.526;2023-05-29T06:02:15;8.20;;;1.70;;
80621;SDS011;69980;51.914;7.526;2023-05-29T06:04:40;12.45;;;2.42;;
80621;SDS011;69980;51.914;7.526;2023-05-29T06:07:06;10.05;;;1.95;;
80621;SDS011;69980;51.914;7.526;2023-05-29T06:09:31;9.90;;;2.00;;
80621;SDS011;69980;51.914;7.526;2023-05-29T06:11:56;10.68;;;2.03;;
80621;SDS011;69980;51.914;7.526;2023-05-29T06:14:23;10.10;;;2.00;;
80621;SDS011;69980;51.914;7.526;2023-05-29T06:16:48;10.82;;;2.35;;
80621;SDS011;69980;51.914;7.526;2023-05-29T06:19:13;10.15;;;1.90;;
80621;SDS011;69980;51.914;7.526;2023-05-29T06:21:39;10.48;;;2.05;;
80621;SDS011;69980;51.914;7.526;2023-05-29T06:24:04;11.65;;;2.47;;
80621;SDS011;69980;51.914;7.526;2023-05-29T06:26:29;9.50;;;2.25;;
80621;SDS011;69980;51.914;7.526;2023-05-29T06:28:55;10.70;;;2.30;;
80621;SDS011;69980;51.914;7.526;2023-05-29T06:31:20;10.77;;;2.00;;
80621;SDS011;69980;51.914;7.526;2023-05-29T06:33:45;10.65;;;1.90;;
80621;SDS011;69980;51.914;7.526;2023-05-29T06:36:11;12.30;;;2.40;;
80621;SDS011;69980;51.914;7.526;2023-05-29T06:38:36;10.45;;;2.42;;
80621;SDS011;69980;51.914;7.526;2023-05-29T06:41:02;8.95;;;1.98;;
80621;SDS011;69980;51.914;7.526;2023-05-29T06:43:28;12.45;;;2.33;;
80621;SDS011;69980;51.914;7.526;2023-05-29T06:45:53;12.93;;;2.00;;
80621;SDS011;69980;51.914;7.526;2023-05-29T06:48:18;11.23;;;2.30;;
80621;SDS011;69980;51.914;7.526;2023-05-29T06:50:44;9.43;;;1.90;;
80621;SDS011;69980;51.914;7.526;2023-05-29T06:53:09;10.65;;;2.22;;
80621;SDS011;69980;51.914;7.526;2023-05-29T06:55:34;10.25;;;2.15;;
80621;SDS011;69980;51.914;7.526;2023-05-29T06:58:00;12.55;;;2.33;;
80621;SDS011;69980;51.914;7.526;2023-05-29T07:00:25;14.18;;;2.40;;
80621;SDS011;69980;51.914;7.526;2023-05-29T07:02:50;11.57;;;2.30;;
80621;SDS011;69980;51.914;7.526;2023-05-29T07:05:16;10.90;;;2.10;;
80621;SDS011;69980;51.914;7.526;2023-05-29T07:07:41;10.10;;;2.15;;
80621;SDS011;69980;51.914;7.526;2023-05-29T07:10:06;12.00;;;2.20;;
80621;SDS011;69980;51.914;7.526;2023-05-29T07:12:32;11.80;;;2.58;;
80621;SDS011;69980;51.914;7.526;2023-05-29T07:14:57;14.70;;;2.78;;
80621;SDS011;69980;51.914;7.526;2023-05-29T07:17:22;11.40;;;2.28;;
80621;SDS011;69980;51.914;7.526;2023-05-29T07:19:48;7.50;;;1.85;;
80621;SDS011;69980;51.914;7.526;2023-05-29T07:22:13;8.77;;;1.90;;
80621;SDS011;69980;51.914;7.526;2023-05-29T07:24:38;9.55;;;2.08;;
80621;SDS011;69980;51.914;7.526;2023-05-29T07:27:04;9.38;;;2.28;;
80621;SDS011;69980;51.914;7.526;2023-05-29T07:29:29;9.98;;;2.05;;
80621;SDS011;69980;51.914;7.526;2023-05-29T07:31:54;8.63;;;1.65;;
80621;SDS011;69980;51.914;7.526;2023-05-29T07:34:20;6.93;;;1.60;;
80621;SDS011;69980;51.914;7.526;2023-05-29T07:37:02;11.55;;;2.25;;
80621;SDS011;69980;51.914;7.526;2023-05-29T07:39:28;11.32;;;2.25;;
80621;SDS011;69980;51.914;7.526;2023-05-29T07:41:54;11.07;;;2.08;;
80621;SDS011;69980;51.914;7.526;2023-05-29T07:44:19;10.45;;;2.28;;
80621;SDS011;69980;51.914;7.526;2023-05-29T07:46:45;10.20;;;2.00;;
80621;SDS011;69980;51.914;7.526;2023-05-29T07:49:10;10.00;;;1.92;;
80621;SDS011;69980;51.914;7.526;2023-05-29T07:51:35;10.82;;;2.00;;
80621;SDS011;69980;51.914;7.526;2023-05-29T07:54:01;9.38;;;2.08;;
80621;SDS011;69980;51.914;7.526;2023-05-29T07:56:26;9.57;;;2.25;;
80621;SDS011;69980;51.914;7.526;2023-05-29T07:58:51;9.60;;;1.80;;
80621;SDS011;69980;51.914;7.526;2023-05-29T08:01:16;8.68;;;1.92;;
80621;SDS011;69980;51.914;7.526;2023-05-29T08:03:42;12.00;;;2.17;;
80621;SDS011;69980;51.914;7.526;2023-05-29T08:06:07;8.60;;;1.85;;
80621;SDS011;69980;51.914;7.526;2023-05-29T08:08:32;10.70;;;1.90;;
80621;SDS011;69980;51.914;7.526;2023-05-29T08:10:58;10.20;;;2.40;;
80621;SDS011;69980;51.914;7.526;2023-05-29T08:13:23;8.68;;;2.00;;
80621;SDS011;69980;51.914;7.526;2023-05-29T08:15:48;9.52;;;1.90;;
80621;SDS011;69980;51.914;7.526;2023-05-29T08:18:14;9.40;;;1.95;;
80621;SDS011;69980;51.914;7.526;2023-05-29T08:20:39;9.93;;;2.35;;
80621;SDS011;69980;51.914;7.526;2023-05-29T08:23:04;9.57;;;2.10;;
80621;SDS011;69980;51.914;7.526;2023-05-29T08:25:30;7.72;;;1.90;;
80621;SDS011;69980;51.914;7.526;2023-05-29T08:27:55;10.35;;;2.60;;
80621;SDS011;69980;51.914;7.526;2023-05-29T08:30:20;9.77;;;2.08;;
80621;SDS011;69980;51.914;7.526;2023-05-29T08:32:45;10.63;;;2.20;;
80621;SDS011;69980;51.914;7.526;2023-05-29T08:35:11;12.13;;;2.28;;
80621;SDS011;69980;51.914;7.526;2023-05-29T08:37:36;10.20;;;2.25;;
80621;SDS011;69980;51.914;7.526;2023-05-29T08:40:02;11.90;;;2.40;;
80621;SDS011;69980;51.914;7.526;2023-05-29T08:42:32;10.07;;;2.33;;
80621;SDS011;69980;51.914;7.526;2023-05-29T08:44:58;12.80;;;2.17;;
80621;SDS011;69980;51.914;7.526;2023-05-29T08:47:27;8.93;;;2.05;;
80621;SDS011;69980;51.914;7.526;2023-05-29T08:49:57;9.98;;;2.33;;
80621;SDS011;69980;51.914;7.526;2023-05-29T08:52:25;7.05;;;2.05;;
80621;SDS011;69980;51.914;7.526;2023-05-29T08:54:51;11.05;;;1.98;;
80621;SDS011;69980;51.914;7.526;2023-05-29T08:57:17;11.85;;;2.40;;
80621;SDS011;69980;51.914;7.526;2023-05-29T08:59:43;9.25;;;2.05;;
80621;SDS011;69980;51.914;7.526;2023-05-29T09:02:09;10.55;;;1.73;;
80621;SDS011;69980;51.914;7.526;2023-05-29T09:04:35;9.15;;;2.00;;
80621;SDS011;69980;51.914;7.526;2023-05-29T09:07:00;8.50;;;1.92;;
80621;SDS011;69980;51.914;7.526;2023-05-29T09:09:26;7.47;;;1.92;;
80621;SDS011;69980;51.914;7.526;2023-05-29T09:11:51;8.88;;;1.98;;
80621;SDS011;69980;51.914;7.526;2023-05-29T09:14:36;6.32;;;1.70;;
80621;SDS011;69980;51.914;7.526;2023-05-29T09:17:03;9.98;;;2.13;;
80621;SDS011;69980;51.914;7.526;2023-05-29T09:19:29;7.65;;;2.05;;
80621;SDS011;69980;51.914;7.526;2023-05-29T09:22:05;10.25;;;2.30;;
80621;SDS011;69980;51.914;7.526;2023-05-29T09:24:35;10.38;;;2.00;;
80621;SDS011;69980;51.914;7.526;2023-05-29T09:27:01;7.18;;;2.13;;
80621;SDS011;69980;51.914;7.526;2023-05-29T09:29:28;9.82;;;2.40;;
80621;SDS011;69980;51.914;7.526;2023-05-29T09:31:56;11.43;;;2.20;;
80621;SDS011;69980;51.914;7.526;2023-05-29T09:34:23;11.32;;;2.60;;
80621;SDS011;69980;51.914;7.526;2023-05-29T09:36:49;9.10;;;2.20;;
80621;SDS011;69980;51.914;7.526;2023-05-29T09:39:14;9.10;;;2.08;;
80621;SDS011;69980;51.914;7.526;2023-05-29T09:41:43;7.13;;;2.17;;
80621;SDS011;69980;51.914;7.526;2023-05-29T09:44:15;7.50;;;1.80;;
80621;SDS011;69980;51.914;7.526;2023-05-29T09:46:41;9.18;;;2.10;;
80621;SDS011;69980;51.914;7.526;2023-05-29T09:49:12;9.63;;;2.30;;
80621;SDS011;69980;51.914;7.526;2023-05-29T09:51:38;9.38;;;2.33;;
80621;SDS011;69980;51.914;7.526;2023-05-29T09:54:14;7.57;;;1.98;;
80621;SDS011;69980;51.914;7.526;2023-05-29T09:56:40;14.95;;;2.30;;
80621;SDS011;69980;51.914;7.526;2023-05-29T09:59:07;7.97;;;1.85;;
80621;SDS011;69980;51.914;7.526;2023-05-29T10:01:35;7.55;;;2.33;;
80621;SDS011;69980;51.914;7.526;2023-05-29T10:04:01;8.57;;;2.40;;
80621;SDS011;69980;51.914;7.526;2023-05-29T10:06:26;7.78;;;2.05;;
80621;SDS011;69980;51.914;7.526;2023-05-29T10:08:51;7.95;;;1.70;;
80621;SDS011;69980;51.914;7.526;2023-05-29T10:11:18;10.10;;;2.30;;
80621;SDS011;69980;51.914;7.526;2023-05-29T10:13:46;8.05;;;2.03;;
80621;SDS011;69980;51.914;7.526;2023-05-29T10:16:13;7.82;;;2.30;;
80621;SDS011;69980;51.914;7.526;2023-05-29T10:18:39;7.13;;;2.00;;
80621;SDS011;69980;51.914;7.526;2023-05-29T10:21:07;8.02;;;1.65;;
80621;SDS011;69980;51.914;7.526;2023-05-29T10:23:36;9.82;;;2.22;;
80621;SDS011;69980;51.914;7.526;2023-05-29T10:26:12;6.30;;;1.73;;
80621;SDS011;69980;51.914;7.526;2023-05-29T10:28:41;8.75;;;2.00;;
80621;SDS011;69980;51.914;7.526;2023-05-29T10:31:10;8.25;;;2.00;;
80621;SDS011;69980;51.914;7.526;2023-05-29T10:36:22;5.97;;;2.08;;
80621;SDS011;69980;51.914;7.526;2023-05-29T10:38:50;8.05;;;2.20;;
80621;SDS011;69980;51.914;7.526;2023-05-29T10:43:50;6.70;;;1.95;;
80621;SDS011;69980;51.914;7.526;2023-05-29T10:46:15;6.50;;;2.03;;
80621;SDS011;69980;51.914;7.526;2023-05-29T10:48:41;8.27;;;2.20;;
80621;SDS011;69980;51.914;7.526;2023-05-29T10:51:07;8.05;;;2.08;;
80621;SDS011;69980;51.914;7.526;2023-05-29T10:53:32;5.47;;;1.60;;
80621;SDS011;69980;51.914;7.526;2023-05-29T10:55:58;8.55;;;2.20;;
80621;SDS011;69980;51.914;7.526;2023-05-29T10:58:25;9.75;;;2.53;;
80621;SDS011;69980;51.914;7.526;2023-05-29T11:00:51;7.40;;;1.83;;
80621;SDS011;69980;51.914;7.526;2023-05-29T11:03:19;8.63;;;1.90;;
80621;SDS011;69980;51.914;7.526;2023-05-29T11:05:59;7.90;;;2.10;;
80621;SDS011;69980;51.914;7.526;2023-05-29T11:08:34;8.45;;;2.13;;
80621;SDS011;69980;51.914;7.526;2023-05-29T11:11:00;8.23;;;2.33;;
80621;SDS011;69980;51.914;7.526;2023-05-29T11:16:04;8.10;;;2.22;;
80621;SDS011;69980;51.914;7.526;2023-05-29T11:18:30;6.32;;;1.70;;
80621;SDS011;69980;51.914;7.526;2023-05-29T11:21:00;6.53;;;2.22;;
80621;SDS011;69980;51.914;7.526;2023-05-29T11:23:28;7.47;;;2.00;;
80621;SDS011;69980;51.914;7.526;2023-05-29T11:25:56;8.35;;;2.22;;
80621;SDS011;69980;51.914;7.526;2023-05-29T11:28:22;8.68;;;2.00;;
80621;SDS011;69980;51.914;7.526;2023-05-29T11:30:47;7.30;;;1.90;;
80621;SDS011;69980;51.914;7.526;2023-05-29T11:33:23;9.88;;;2.13;;
80621;SDS011;69980;51.914;7.526;2023-05-29T11:35:56;7.50;;;2.10;;
80621;SDS011;69980;51.914;7.526;2023-05-29T11:38:23;7.65;;;2.00;;
80621;SDS011;69980;51.914;7.526;2023-05-29T11:40:49;6.80;;;2.03;;
80621;SDS011;69980;51.914;7.526;2023-05-29T11:43:14;9.45;;;1.98;;
80621;SDS011;69980;51.914;7.526;2023-05-29T11:45:40;9.20;;;2.30;;
80621;SDS011;69980;51.914;7.526;2023-05-29T11:48:05;7.43;;;1.80;;
80621;SDS011;69980;51.914;7.526;2023-05-29T11:50:31;6.32;;;1.92;;
80621;SDS011;69980;51.914;7.526;2023-05-29T11:52:57;5.97;;;1.90;;
80621;SDS011;69980;51.914;7.526;2023-05-29T11:55:24;7.88;;;2.33;;
80621;SDS011;69980;51.914;7.526;2023-05-29T11:57:59;7.22;;;2.50;;
80621;SDS011;69980;51.914;7.526;2023-05-29T12:00:26;9.93;;;2.00;;
80621;SDS011;69980;51.914;7.526;2023-05-29T12:02:58;6.70;;;2.88;;
80621;SDS011;69980;51.914;7.526;2023-05-29T12:05:24;5.93;;;1.77;;
80621;SDS011;69980;51.914;7.526;2023-05-29T12:07:50;8.38;;;2.05;;
80621;SDS011;69980;51.914;7.526;2023-05-29T12:10:17;6.93;;;1.80;;
80621;SDS011;69980;51.914;7.526;2023-05-29T12:12:47;6.15;;;1.88;;
80621;SDS011;69980;51.914;7.526;2023-05-29T12:15:12;8.15;;;2.08;;
80621;SDS011;69980;51.914;7.526;2023-05-29T12:17:38;8.60;;;2.42;;
80621;SDS011;69980;51.914;7.526;2023-05-29T12:20:03;8.52;;;2.10;;
80621;SDS011;69980;51.914;7.526;2023-05-29T12:22:33;11.13;;;3.05;;
80621;SDS011;69980;51.914;7.526;2023-05-29T12:25:03;8.18;;;2.72;;
80621;SDS011;69980;51.914;7.526;2023-05-29T12:27:32;6.70;;;2.13;;
80621;SDS011;69980;51.914;7.526;2023-05-29T12:30:03;7.57;;;2.38;;
80621;SDS011;69980;51.914;7.526;2023-05-29T12:32:35;11.43;;;2.78;;
80621;SDS011;69980;51.914;7.526;2023-05-29T12:35:10;7.30;;;2.33;;
80621;SDS011;69980;51.914;7.526;2023-05-29T12:40:34;6.55;;;2.00;;
80621;SDS011;69980;51.914;7.526;2023-05-29T12:43:00;8.35;;;2.40;;
80621;SDS011;69980;51.914;7.526;2023-05-29T12:45:30;6.50;;;1.80;;
80621;SDS011;69980;51.914;7.526;2023-05-29T12:47:57;6.25;;;1.83;;
80621;SDS011;69980;51.914;7.526;2023-05-29T12:50:27;6.63;;;2.10;;
80621;SDS011;69980;51.914;7.526;2023-05-29T12:52:56;6.72;;;2.10;;
80621;SDS011;69980;51.914;7.526;2023-05-29T12:55:23;8.40;;;2.45;;
80621;SDS011;69980;51.914;7.526;2023-05-29T12:57:49;7.28;;;2.00;;
80621;SDS011;69980;51.914;7.526;2023-05-29T13:00:15;6.65;;;2.15;;
80621;SDS011;69980;51.914;7.526;2023-05-29T13:02:40;7.75;;;2.30;;
80621;SDS011;69980;51.914;7.526;2023-05-29T13:05:06;7.88;;;2.42;;
80621;SDS011;69980;51.914;7.526;2023-05-29T13:07:32;5.93;;;1.80;;
80621;SDS011;69980;51.914;7.526;2023-05-29T13:09:58;8.85;;;2.45;;
80621;SDS011;69980;51.914;7.526;2023-05-29T13:12:24;10.25;;;2.72;;
80621;SDS011;69980;51.914;7.526;2023-05-29T13:14:50;6.78;;;2.17;;
80621;SDS011;69980;51.914;7.526;2023-05-29T13:17:15;7.65;;;2.45;;
80621;SDS011;69980;51.914;7.526;2023-05-29T13:19:40;7.20;;;2.10;;
80621;SDS011;69980;51.914;7.526;2023-05-29T13:22:06;6.20;;;1.70;;
80621;SDS011;69980;51.914;7.526;2023-05-29T13:24:31;8.77;;;2.50;;
80621;SDS011;69980;51.914;7.526;2023-05-29T13:26:56;7.60;;;1.95;;
80621;SDS011;69980;51.914;7.526;2023-05-29T13:29:21;7.45;;;2.10;;
80621;SDS011;69980;51.914;7.526;2023-05-29T13:31:47;6.30;;;1.90;;
80621;SDS011;69980;51.914;7.526;2023-05-29T13:34:12;6.40;;;1.65;;
80621;SDS011;69980;51.914;7.526;2023-05-29T13:36:37;5.80;;;2.00;;
80621;SDS011;69980;51.914;7.526;2023-05-29T13:39:03;8.65;;;1.90;;
80621;SDS011;69980;51.914;7.526;2023-05-29T13:41:28;6.63;;;2.05;;
80621;SDS011;69980;51.914;7.526;2023-05-29T13:43:53;7.05;;;1.83;;
80621;SDS011;69980;51.914;7.526;2023-05-29T13:46:18;5.68;;;1.50;;
80621;SDS011;69980;51.914;7.526;2023-05-29T13:48:44;7.40;;;1.95;;
80621;SDS011;69980;51.914;7.526;2023-05-29T13:51:09;6.85;;;1.70;;
80621;SDS011;69980;51.914;7.526;2023-05-29T13:53:34;7.30;;;1.77;;
80621;SDS011;69980;51.914;7.526;2023-05-29T13:56:00;7.28;;;2.20;;
80621;SDS011;69980;51.914;7.526;2023-05-29T13:58:25;5.55;;;2.00;;
80621;SDS011;69980;51.914;7.526;2023-05-29T14:00:53;8.65;;;2.10;;
80621;SDS011;69980;51.914;7.526;2023-05-29T14:03:18;6.60;;;2.22;;
80621;SDS011;69980;51.914;7.526;2023-05-29T14:05:44;8.48;;;2.20;;
80621;SDS011;69980;51.914;7.526;2023-05-29T14:08:09;8.10;;;2.20;;
80621;SDS011;69980;51.914;7.526;2023-05-29T14:10:34;8.43;;;1.80;;
80621;SDS011;69980;51.914;7.526;2023-05-29T14:13:00;9.25;;;2.42;;
80621;SDS011;69980;51.914;7.526;2023-05-29T14:15:25;8.27;;;2.20;;
80621;SDS011;69980;51.914;7.526;2023-05-29T14:17:50;7.13;;;2.00;;
80621;SDS011;69980;51.914;7.526;2023-05-29T14:20:16;7.20;;;2.30;;
80621;SDS011;69980;51.914;7.526;2023-05-29T14:22:41;8.70;;;2.22;;
80621;SDS011;69980;51.914;7.526;2023-05-29T14:25:06;7.60;;;1.98;;
80621;SDS011;69980;51.914;7.526;2023-05-29T14:27:32;6.65;;;2.00;;
80621;SDS011;69980;51.914;7.526;2023-05-29T14:29:57;5.35;;;1.83;;
80621;SDS011;69980;51.914;7.526;2023-05-29T14:32:22;7.53;;;2.10;;
80621;SDS011;69980;51.914;7.526;2023-05-29T14:34:47;8.63;;;2.20;;
80621;SDS011;69980;51.914;7.526;2023-05-29T14:37:13;5.65;;;1.70;;
80621;SDS011;69980;51.914;7.526;2023-05-29T14:39:38;7.72;;;2.05;;
80621;SDS011;69980;51.914;7.526;2023-05-29T14:42:03;8.02;;;2.00;;
80621;SDS011;69980;51.914;7.526;2023-05-29T14:44:29;9.68;;;2.92;;
80621;SDS011;69980;51.914;7.526;2023-05-29T14:46:54;8.40;;;1.90;;
80621;SDS011;69980;51.914;7.526;2023-05-29T14:49:19;9.10;;;2.38;;
80621;SDS011;69980;51.914;7.526;2023-05-29T14:51:45;7.85;;;2.15;;
80621;SDS011;69980;51.914;7.526;2023-05-29T14:54:10;7.55;;;2.03;;